createdAt,value
2018-04-11T00:02:15.915Z,10.40
2018-04-11T00:04:43.340Z,10.30
2018-04-11T00:07:10.768Z,10.30
2018-04-11T00:09:38.254Z,10.30
2018-04-11T00:12:05.691Z,10.40
2018-04-11T00:14:33.137Z,10.30
2018-04-11T00:17:00.549Z,10.30
2018-04-11T00:19:28.970Z,10.30
2018-04-11T00:21:56.525Z,10.30
2018-04-11T00:24:23.993Z,10.10
2018-04-11T00:26:51.414Z,10.20
2018-04-11T00:29:18.895Z,10.10
2018-04-11T00:31:46.345Z,10.10
2018-04-11T00:34:13.770Z,10.10
2018-04-11T00:36:41.195Z,10.10
2018-04-11T00:39:08.736Z,10.10
2018-04-11T00:41:36.178Z,10.10
2018-04-11T00:44:03.929Z,10.00
2018-04-11T00:46:31.386Z,10.00
2018-04-11T00:48:58.805Z,9.90
2018-04-11T00:51:26.299Z,9.90
2018-04-11T00:53:53.722Z,9.90
2018-04-11T00:56:21.151Z,10.00
2018-04-11T00:58:48.671Z,10.00
2018-04-11T01:01:16.102Z,10.00
2018-04-11T01:03:43.529Z,10.10
2018-04-11T01:06:10.952Z,10.10
2018-04-11T01:08:38.696Z,10.10
2018-04-11T01:11:06.154Z,10.10
2018-04-11T01:13:33.645Z,10.10
2018-04-11T01:16:01.170Z,10.10
2018-04-11T01:18:28.597Z,10.10
2018-04-11T01:20:56.081Z,10.10
2018-04-11T01:23:23.502Z,10.20
2018-04-11T01:25:50.942Z,10.20
2018-04-11T01:28:19.134Z,10.20
2018-04-11T01:30:46.892Z,10.20
2018-04-11T01:33:14.246Z,10.20
2018-04-11T01:35:41.682Z,10.20
2018-04-11T01:38:09.098Z,10.20
2018-04-11T01:40:36.531Z,10.20
2018-04-11T01:43:03.948Z,10.20
2018-04-11T01:45:31.565Z,10.10
2018-04-11T01:47:58.985Z,10.10
2018-04-11T01:50:26.471Z,10.10
2018-04-11T01:52:53.891Z,10.10
2018-04-11T01:55:21.313Z,10.10
2018-04-11T01:57:48.844Z,10.10
2018-04-11T02:00:16.298Z,10.10
2018-04-11T02:02:43.713Z,10.10
2018-04-11T02:05:11.217Z,10.00
2018-04-11T02:07:38.687Z,10.10
2018-04-11T02:10:06.306Z,10.00
2018-04-11T02:12:33.766Z,10.00
2018-04-11T02:15:01.198Z,10.00
2018-04-11T02:17:29.422Z,10.00
2018-04-11T02:19:56.844Z,10.00
2018-04-11T02:22:24.274Z,10.00
2018-04-11T02:24:52.714Z,10.00
2018-04-11T02:27:20.148Z,10.00
2018-04-11T02:29:47.566Z,10.00
2018-04-11T02:32:15.082Z,10.00
2018-04-11T02:34:42.855Z,10.00
2018-04-11T02:37:10.273Z,10.00
2018-04-11T02:39:37.759Z,10.00
2018-04-11T02:42:05.393Z,10.00
2018-04-11T02:44:32.842Z,10.00
2018-04-11T02:47:00.428Z,9.90
2018-04-11T02:49:27.883Z,9.90
2018-04-11T02:51:55.313Z,9.90
2018-04-11T02:54:22.738Z,9.90
2018-04-11T02:56:50.162Z,9.90
2018-04-11T02:59:17.626Z,9.80
2018-04-11T03:01:45.041Z,9.70
2018-04-11T03:04:12.566Z,9.60
2018-04-11T03:06:39.983Z,9.60
2018-04-11T03:09:07.410Z,9.60
2018-04-11T03:11:34.890Z,9.50
2018-04-11T03:14:02.360Z,9.40
2018-04-11T03:16:29.903Z,9.40
2018-04-11T03:18:57.337Z,9.30
2018-04-11T03:21:24.810Z,9.30
2018-04-11T03:23:52.270Z,9.30
2018-04-11T03:26:19.677Z,9.30
2018-04-11T03:28:47.105Z,9.20
2018-04-11T03:31:14.530Z,9.20
2018-04-11T03:33:42.103Z,9.20
2018-04-11T03:36:09.522Z,9.20
2018-04-11T03:38:36.937Z,9.20
2018-04-11T03:41:04.470Z,9.20
2018-04-11T03:43:31.886Z,9.20
2018-04-11T03:45:59.307Z,9.30
2018-04-11T03:48:26.747Z,9.10
2018-04-11T03:50:54.206Z,9.10
2018-04-11T03:53:21.655Z,9.10
2018-04-11T03:55:49.224Z,9.10
2018-04-11T03:58:16.686Z,9.00
2018-04-11T04:00:44.085Z,9.00
2018-04-11T04:03:11.571Z,9.00
2018-04-11T04:05:39.036Z,8.90
2018-04-11T04:08:06.458Z,9.00
2018-04-11T04:10:33.938Z,9.10
2018-04-11T04:13:01.394Z,9.10
2018-04-11T04:15:40.643Z,9.10
2018-04-11T04:18:19.978Z,9.10
2018-04-11T04:20:47.423Z,9.00
2018-04-11T04:23:14.825Z,8.90
2018-04-11T04:25:42.267Z,8.80
2018-04-11T04:28:09.794Z,8.80
2018-04-11T04:30:37.241Z,8.80
2018-04-11T04:33:04.666Z,8.80
2018-04-11T04:35:32.100Z,8.80
2018-04-11T04:37:59.550Z,8.70
2018-04-11T04:40:27.070Z,8.70
2018-04-11T04:42:54.558Z,8.80
2018-04-11T04:45:23.190Z,8.70
2018-04-11T04:47:50.606Z,8.70
2018-04-11T04:50:18.118Z,8.60
2018-04-11T04:52:45.537Z,8.60
2018-04-11T04:55:12.967Z,8.60
2018-04-11T04:57:41.430Z,8.50
2018-04-11T05:00:08.871Z,8.50
2018-04-11T05:02:36.350Z,8.50
2018-04-11T05:05:03.787Z,8.50
2018-04-11T05:07:31.237Z,8.50
2018-04-11T05:09:58.649Z,8.50
2018-04-11T05:12:26.080Z,8.50
2018-04-11T05:14:53.602Z,8.50
2018-04-11T05:17:21.040Z,8.60
2018-04-11T05:19:48.453Z,8.60
2018-04-11T05:22:15.911Z,8.60
2018-04-11T05:24:43.344Z,8.60
2018-04-11T05:27:10.818Z,8.60
2018-04-11T05:29:38.250Z,8.70
2018-04-11T05:32:05.710Z,8.70
2018-04-11T05:34:33.259Z,8.70
2018-04-11T05:37:00.674Z,8.80
2018-04-11T05:39:28.108Z,8.70
2018-04-11T05:41:56.534Z,8.60
2018-04-11T05:44:24.034Z,8.60
2018-04-11T05:46:51.554Z,8.50
2018-04-11T05:49:19.149Z,8.40
2018-04-11T05:51:46.569Z,8.50
2018-04-11T05:54:14.052Z,8.60
2018-04-11T05:56:41.499Z,8.60
2018-04-11T05:59:09.960Z,8.60
2018-04-11T06:01:37.378Z,8.60
2018-04-11T06:04:04.814Z,8.60
2018-04-11T06:06:32.342Z,8.60
2018-04-11T06:09:00.102Z,8.60
2018-04-11T06:11:27.522Z,8.60
2018-04-11T06:13:54.954Z,8.50
2018-04-11T06:16:22.465Z,8.60
2018-04-11T06:18:49.898Z,8.60
2018-04-11T06:21:17.314Z,8.60
2018-04-11T06:23:44.806Z,8.60
2018-04-11T06:26:12.297Z,8.60
2018-04-11T06:28:39.747Z,8.60
2018-04-11T06:31:07.182Z,8.60
2018-04-11T06:33:34.614Z,8.60
2018-04-11T06:36:02.946Z,8.60
2018-04-11T06:38:30.370Z,8.60
2018-04-11T06:40:57.959Z,8.50
2018-04-11T06:43:25.415Z,8.40
2018-04-11T06:45:52.841Z,8.30
2018-04-11T06:48:20.269Z,8.40
2018-04-11T06:50:47.703Z,8.40
2018-04-11T06:53:15.129Z,8.50
2018-04-11T06:55:42.694Z,8.50
2018-04-11T06:58:10.118Z,8.60
2018-04-11T07:00:37.598Z,8.50
2018-04-11T07:03:05.013Z,8.60
2018-04-11T07:05:32.450Z,8.60
2018-04-11T07:07:59.973Z,8.60
2018-04-11T07:10:27.426Z,8.70
2018-04-11T07:12:54.883Z,8.70
2018-04-11T07:15:22.346Z,8.80
2018-04-11T07:17:49.793Z,9.10
2018-04-11T07:20:17.229Z,9.20
2018-04-11T07:22:44.649Z,9.20
2018-04-11T07:25:12.167Z,9.20
2018-04-11T07:27:39.670Z,9.50
2018-04-11T07:30:07.074Z,9.50
2018-04-11T07:32:34.510Z,9.50
2018-04-11T07:35:01.990Z,9.50
2018-04-11T07:37:29.438Z,9.50
2018-04-11T07:39:56.911Z,9.60
2018-04-11T07:42:24.347Z,9.70
2018-04-11T07:44:51.816Z,9.80
2018-04-11T07:47:19.263Z,9.80
2018-04-11T07:49:46.693Z,10.00
2018-04-11T07:52:14.157Z,10.20
2018-04-11T07:54:41.642Z,10.30
2018-04-11T07:57:09.098Z,10.30
2018-04-11T07:59:36.726Z,10.00
2018-04-11T08:02:04.170Z,10.10
2018-04-11T08:04:32.351Z,10.50
2018-04-11T08:06:59.778Z,10.40
2018-04-11T08:09:28.215Z,10.70
2018-04-11T08:11:55.686Z,10.70
2018-04-11T08:14:23.314Z,10.70
2018-04-11T08:16:50.895Z,10.80
2018-04-11T08:19:18.321Z,11.00
2018-04-11T08:21:45.751Z,10.90
2018-04-11T08:24:13.186Z,10.80
2018-04-11T08:26:40.626Z,11.00
2018-04-11T08:29:08.121Z,11.10
2018-04-11T08:31:35.550Z,11.30
2018-04-11T08:34:03.090Z,11.40
2018-04-11T08:36:30.539Z,11.50
2018-04-11T08:38:57.987Z,11.50
2018-04-11T08:41:25.402Z,11.50
2018-04-11T08:43:52.869Z,11.60
2018-04-11T08:46:20.290Z,11.70
2018-04-11T08:48:47.721Z,11.80
2018-04-11T08:51:15.286Z,11.80
2018-04-11T08:53:43.044Z,11.60
2018-04-11T08:56:10.501Z,11.70
2018-04-11T08:58:37.934Z,11.60
2018-04-11T09:01:05.411Z,11.80
2018-04-11T09:03:32.869Z,11.80
2018-04-11T09:08:33.255Z,12.00
2018-04-11T09:11:00.723Z,12.10
2018-04-11T09:13:28.234Z,12.10
2018-04-11T09:15:55.870Z,12.10
2018-04-11T09:18:23.446Z,12.30
2018-04-11T09:20:51.124Z,12.30
2018-04-11T09:23:18.522Z,12.40
2018-04-11T09:25:46.920Z,12.70
2018-04-11T09:28:14.496Z,12.70
2018-04-11T09:30:41.938Z,12.90
2018-04-11T09:33:09.395Z,13.00
2018-04-11T09:35:36.874Z,13.10
2018-04-11T09:38:04.306Z,13.20
2018-04-11T09:40:31.746Z,13.40
2018-04-11T09:42:59.241Z,13.60
2018-04-11T09:45:26.695Z,13.70
2018-04-11T09:47:54.250Z,13.90
2018-04-11T09:50:21.820Z,14.10
2018-04-11T09:52:49.263Z,14.30
2018-04-11T09:55:16.733Z,14.50
2018-04-11T09:57:44.298Z,14.80
2018-04-11T10:00:11.822Z,14.90
2018-04-11T10:02:39.416Z,15.10
2018-04-11T10:05:06.862Z,15.30
2018-04-11T10:07:34.410Z,15.40
2018-04-11T10:10:01.838Z,15.60
2018-04-11T10:12:29.282Z,15.80
2018-04-11T10:14:56.775Z,16.00
2018-04-11T10:17:24.241Z,16.20
2018-04-11T10:19:51.667Z,16.40
2018-04-11T10:22:19.098Z,16.50
2018-04-11T10:24:46.508Z,16.70
2018-04-11T10:27:14.065Z,16.80
2018-04-11T10:29:41.478Z,16.90
2018-04-11T10:32:08.978Z,17.10
2018-04-11T10:34:36.399Z,17.20
2018-04-11T10:37:03.882Z,17.40
2018-04-11T10:39:31.294Z,17.60
2018-04-11T10:41:58.842Z,17.70
2018-04-11T10:44:27.768Z,18.00
2018-04-11T10:46:55.200Z,18.00
2018-04-11T10:49:22.705Z,18.30
2018-04-11T10:51:50.127Z,18.50
2018-04-11T10:54:17.617Z,18.70
2018-04-11T10:56:45.045Z,18.90
2018-04-11T10:59:12.461Z,19.10
2018-04-11T11:01:39.881Z,19.40
2018-04-11T11:04:08.238Z,19.80
2018-04-11T11:06:35.733Z,19.70
2018-04-11T11:09:03.279Z,19.90
2018-04-11T11:11:30.705Z,20.00
2018-04-11T11:13:58.117Z,20.10
2018-04-11T11:16:40.390Z,20.40
2018-04-11T11:19:07.816Z,20.50
2018-04-11T11:21:35.302Z,20.60
2018-04-11T11:24:02.717Z,20.80
2018-04-11T11:26:30.166Z,21.00
2018-04-11T11:28:57.585Z,21.20
2018-04-11T11:31:25.042Z,21.40
2018-04-11T11:33:52.459Z,21.60
2018-04-11T11:36:19.987Z,21.80
2018-04-11T11:38:47.522Z,22.10
2018-04-11T11:41:14.951Z,22.10
2018-04-11T11:43:42.430Z,22.20
2018-04-11T11:46:10.044Z,22.30
2018-04-11T11:48:37.587Z,22.50
2018-04-11T11:51:05.011Z,22.70
2018-04-11T11:53:32.430Z,22.70
2018-04-11T11:55:59.969Z,22.70
2018-04-11T11:58:27.456Z,22.60
2018-04-11T12:00:54.871Z,22.60
2018-04-11T12:03:22.391Z,22.60
2018-04-11T12:05:49.822Z,22.90
2018-04-11T12:08:17.277Z,23.00
2018-04-11T12:10:44.695Z,23.30
2018-04-11T12:13:12.142Z,23.60
2018-04-11T12:15:39.649Z,23.90
2018-04-11T12:18:07.075Z,24.30
2018-04-11T12:20:34.565Z,24.40
2018-04-11T12:23:02.477Z,24.70
2018-04-11T12:25:30.135Z,24.80
2018-04-11T12:27:58.552Z,24.80
2018-04-11T12:30:25.973Z,25.00
2018-04-11T12:32:53.602Z,25.30
2018-04-11T12:35:21.134Z,25.40
2018-04-11T12:37:48.582Z,25.60
2018-04-11T12:40:15.989Z,25.90
2018-04-11T12:42:43.414Z,25.80
2018-04-11T12:45:10.860Z,26.20
2018-04-11T12:47:38.421Z,26.50
2018-04-11T12:50:05.829Z,26.80
2018-04-11T12:52:33.342Z,27.90
2018-04-11T12:55:00.754Z,29.10
2018-04-11T12:57:28.178Z,30.50
2018-04-11T12:59:55.709Z,32.00
2018-04-11T13:02:23.140Z,33.60
2018-04-11T13:04:50.544Z,35.00
2018-04-11T13:07:17.970Z,36.00
2018-04-11T13:09:45.398Z,37.30
2018-04-11T13:12:12.818Z,38.30
2018-04-11T13:14:40.246Z,39.20
2018-04-11T13:17:07.658Z,40.20
2018-04-11T13:19:35.078Z,40.90
2018-04-11T13:22:02.506Z,40.70
2018-04-11T13:24:29.943Z,41.60
2018-04-11T13:26:57.378Z,42.40
2018-04-11T13:29:24.793Z,43.10
2018-04-11T13:31:52.206Z,43.60
2018-04-11T13:34:19.633Z,44.00
2018-04-11T13:36:47.053Z,44.80
2018-04-11T13:39:14.483Z,44.70
2018-04-11T13:41:41.893Z,44.80
2018-04-11T13:44:09.314Z,45.10
2018-04-11T13:46:36.726Z,45.40
2018-04-11T13:49:04.950Z,46.30
2018-04-11T13:51:32.364Z,46.30
2018-04-11T13:53:59.782Z,46.00
2018-04-11T13:56:27.191Z,46.20
2018-04-11T13:58:54.613Z,46.10
2018-04-11T14:01:22.031Z,46.20
2018-04-11T14:03:49.459Z,45.90
2018-04-11T14:06:16.877Z,46.30
2018-04-11T14:08:45.066Z,46.00
2018-04-11T14:11:12.473Z,46.00
2018-04-11T14:13:39.913Z,45.70
2018-04-11T14:16:07.378Z,46.20
2018-04-11T14:18:34.793Z,46.40
2018-04-11T14:21:02.214Z,45.60
2018-04-11T14:23:29.659Z,45.90
2018-04-11T14:25:57.058Z,46.30
2018-04-11T14:28:24.488Z,46.50
2018-04-11T14:30:51.906Z,46.70
2018-04-11T14:33:19.331Z,46.50
2018-04-11T14:35:46.738Z,46.70
2018-04-11T14:38:14.170Z,47.00
2018-04-11T14:40:41.594Z,47.10
2018-04-11T14:43:09.019Z,47.30
2018-04-11T14:45:37.197Z,47.10
2018-04-11T14:48:05.394Z,47.10
2018-04-11T14:50:32.799Z,47.00
2018-04-11T14:53:00.246Z,46.40
2018-04-11T14:55:27.652Z,46.70
2018-04-11T14:57:55.084Z,47.00
2018-04-11T15:00:22.490Z,47.10
2018-04-11T15:02:49.918Z,46.30
2018-04-11T15:05:17.334Z,45.90
2018-04-11T15:07:44.775Z,45.80
2018-04-11T15:10:12.177Z,45.90
2018-04-11T15:12:39.589Z,46.30
2018-04-11T15:15:07.001Z,46.10
2018-04-11T15:17:34.431Z,46.10
2018-04-11T15:20:01.841Z,45.30
2018-04-11T15:22:29.297Z,45.90
2018-04-11T15:24:56.688Z,45.90
2018-04-11T15:27:24.106Z,46.40
2018-04-11T15:29:51.529Z,46.30
2018-04-11T15:32:18.958Z,46.10
2018-04-11T15:34:46.370Z,45.50
2018-04-11T15:37:13.797Z,45.80
2018-04-11T15:39:41.213Z,45.60
2018-04-11T15:42:08.670Z,46.10
2018-04-11T15:44:36.048Z,46.50
2018-04-11T15:47:04.235Z,46.00
2018-04-11T15:49:31.653Z,46.00
2018-04-11T15:51:59.077Z,45.60
2018-04-11T15:54:26.511Z,45.50
2018-04-11T15:56:53.913Z,45.60
2018-04-11T15:59:21.350Z,45.60
2018-04-11T16:01:48.793Z,45.40
2018-04-11T16:04:16.197Z,45.20
2018-04-11T16:06:43.609Z,45.30
2018-04-11T16:09:11.034Z,45.40
2018-04-11T16:11:38.493Z,45.10
2018-04-11T16:14:05.917Z,43.60
2018-04-11T16:16:33.334Z,41.80
2018-04-11T16:19:00.754Z,40.30
2018-04-11T16:21:28.167Z,38.80
2018-04-11T16:23:55.593Z,38.40
2018-04-11T16:26:22.998Z,39.20
2018-04-11T16:28:50.430Z,39.90
2018-04-11T16:31:17.841Z,40.20
2018-04-11T16:33:45.261Z,40.60
2018-04-11T16:36:12.690Z,40.90
2018-04-11T16:38:40.113Z,41.20
2018-04-11T16:41:07.518Z,41.60
2018-04-11T16:43:34.933Z,41.80
2018-04-11T16:46:02.363Z,41.50
2018-04-11T16:48:29.784Z,41.30
2018-04-11T16:50:57.185Z,41.10
2018-04-11T16:53:24.605Z,41.10
2018-04-11T16:55:52.122Z,41.10
2018-04-11T16:58:19.541Z,40.70
2018-04-11T17:00:46.982Z,40.40
2018-04-11T17:03:14.431Z,40.10
2018-04-11T17:05:41.856Z,40.20
2018-04-11T17:08:09.372Z,40.00
2018-04-11T17:10:36.793Z,40.10
2018-04-11T17:13:04.222Z,40.20
2018-04-11T17:15:31.639Z,40.00
2018-04-11T17:17:59.085Z,40.00
2018-04-11T17:23:40.917Z,38.60
2018-04-11T17:26:20.229Z,38.00
2018-04-11T17:28:59.636Z,37.20
2018-04-11T17:31:29.713Z,36.20
2018-04-11T17:33:57.338Z,34.70
2018-04-11T17:36:25.129Z,33.20
2018-04-11T17:38:52.562Z,32.00
2018-04-11T17:41:19.961Z,31.00
2018-04-11T17:43:47.374Z,30.00
2018-04-11T17:46:15.793Z,28.40
2018-04-11T17:48:44.006Z,27.70
2018-04-11T17:51:11.675Z,27.60
2018-04-11T17:53:39.166Z,27.00
2018-04-11T17:56:06.595Z,26.50
2018-04-11T17:58:34.077Z,26.00
2018-04-11T18:01:02.382Z,25.50
2018-04-11T18:03:30.984Z,24.60
2018-04-11T18:05:58.378Z,24.60
2018-04-11T18:08:25.833Z,24.20
2018-04-11T18:10:53.229Z,23.90
2018-04-11T18:13:20.651Z,23.60
2018-04-11T18:15:48.066Z,23.30
2018-04-11T18:18:15.499Z,23.00
2018-04-11T18:20:42.938Z,22.70
2018-04-11T18:23:10.350Z,22.40
2018-04-11T18:25:38.823Z,21.90
2018-04-11T18:28:06.333Z,21.90
2018-04-11T18:30:33.764Z,21.70
2018-04-11T18:33:01.180Z,21.50
2018-04-11T18:35:29.628Z,21.00
2018-04-11T18:37:57.029Z,21.00
2018-04-11T18:40:28.138Z,20.70
2018-04-11T18:42:55.569Z,20.70
2018-04-11T18:45:22.986Z,20.60
2018-04-11T18:47:51.170Z,20.30
2018-04-11T18:50:18.691Z,20.30
2018-04-11T18:52:46.662Z,20.20
2018-04-11T18:55:14.849Z,19.90
2018-04-11T18:57:42.262Z,19.80
2018-04-11T19:00:09.690Z,19.80
2018-04-11T19:02:37.117Z,19.80
2018-04-11T19:05:04.552Z,19.60
2018-04-11T19:07:31.966Z,19.60
2018-04-11T19:09:59.386Z,19.40
2018-04-11T19:12:27.581Z,19.10
2018-04-11T19:14:55.041Z,19.10
2018-04-11T19:17:22.475Z,19.00
2018-04-11T19:19:49.986Z,18.80
2018-04-11T19:22:17.447Z,18.70
2018-04-11T19:24:44.860Z,18.60
2018-04-11T19:27:12.280Z,18.50
2018-04-11T19:29:39.733Z,18.40
2018-04-11T19:32:07.145Z,18.30
2018-04-11T19:34:34.668Z,18.10
2018-04-11T19:37:03.077Z,17.90
2018-04-11T19:39:30.507Z,17.80
2018-04-11T19:41:58.002Z,17.80
2018-04-11T19:44:25.462Z,17.70
2018-04-11T19:46:52.870Z,17.60
2018-04-11T19:49:20.367Z,17.50
2018-04-11T19:51:47.790Z,17.50
2018-04-11T19:54:15.298Z,17.40
2018-04-11T19:56:42.706Z,17.40
2018-04-11T19:59:11.338Z,17.30
2018-04-11T20:01:38.885Z,17.20
2018-04-11T20:04:06.309Z,17.10
2018-04-11T20:06:33.726Z,17.20
2018-04-11T20:09:02.209Z,17.10
2018-04-11T20:11:31.346Z,17.00
2018-04-11T20:13:58.817Z,17.00
2018-04-11T20:16:26.222Z,16.90
2018-04-11T20:18:53.764Z,16.80
2018-04-11T20:21:21.207Z,16.70
2018-04-11T20:23:48.699Z,16.70
2018-04-11T20:26:16.117Z,16.70
2018-04-11T20:28:44.845Z,16.70
2018-04-11T20:31:12.270Z,16.60
2018-04-11T20:33:39.702Z,16.50
2018-04-11T20:36:07.170Z,16.50
2018-04-11T20:38:34.589Z,16.50
2018-04-11T20:41:02.974Z,16.40
2018-04-11T20:43:30.490Z,16.40
2018-04-11T20:45:58.018Z,16.40
2018-04-11T20:48:25.484Z,16.40
2018-04-11T20:50:52.930Z,16.40
2018-04-11T20:53:20.550Z,16.30
2018-04-11T20:55:48.757Z,16.30
2018-04-11T20:58:16.198Z,16.20
2018-04-11T21:00:43.616Z,16.20
2018-04-11T21:03:11.126Z,16.10
2018-04-11T21:05:38.545Z,16.10
2018-04-11T21:08:05.962Z,16.00
2018-04-11T21:10:33.406Z,16.00
2018-04-11T21:13:00.854Z,16.00
2018-04-11T21:15:28.305Z,15.90
2018-04-11T21:17:55.766Z,15.80
2018-04-11T21:20:23.261Z,15.80
2018-04-11T21:22:50.681Z,15.70
2018-04-11T21:25:18.137Z,15.70
2018-04-11T21:27:45.991Z,15.70
2018-04-11T21:30:13.428Z,15.70
2018-04-11T21:32:40.907Z,15.70
2018-04-11T21:35:08.334Z,15.60
2018-04-11T21:37:35.817Z,15.60
2018-04-11T21:40:03.275Z,15.50
2018-04-11T21:42:30.738Z,15.50
2018-04-11T21:44:58.156Z,15.40
2018-04-11T21:47:25.605Z,15.30
2018-04-11T21:49:53.100Z,15.30
2018-04-11T21:52:20.517Z,15.30
2018-04-11T21:54:47.946Z,15.20
2018-04-11T21:57:15.369Z,15.20
2018-04-11T21:59:42.930Z,15.20
2018-04-11T22:02:10.354Z,15.10
2018-04-11T22:04:37.834Z,15.10
2018-04-11T22:07:05.263Z,15.00
2018-04-11T22:09:32.750Z,15.00
2018-04-11T22:12:00.174Z,15.00
2018-04-11T22:14:27.605Z,15.00
2018-04-11T22:16:55.024Z,14.90
2018-04-11T22:19:22.571Z,14.90
2018-04-11T22:21:50.030Z,14.90
2018-04-11T22:24:17.696Z,14.90
2018-04-11T22:26:45.157Z,14.80
2018-04-11T22:29:12.710Z,14.70
2018-04-11T22:31:40.124Z,14.70
2018-04-11T22:34:07.620Z,14.70
2018-04-11T22:36:35.046Z,14.70
2018-04-11T22:39:02.466Z,14.70
2018-04-11T22:41:29.899Z,14.70
2018-04-11T22:43:57.446Z,14.60
2018-04-11T22:46:24.902Z,14.60
2018-04-11T22:48:52.661Z,14.60
2018-04-11T22:51:20.098Z,14.60
2018-04-11T22:53:47.518Z,14.60
2018-04-11T22:56:14.947Z,14.60
2018-04-11T22:58:42.395Z,14.60
2018-04-11T23:01:09.854Z,14.60
2018-04-11T23:03:37.304Z,14.60
2018-04-11T23:06:04.863Z,14.50
2018-04-11T23:08:32.625Z,14.50
2018-04-11T23:11:00.056Z,14.50
2018-04-11T23:13:27.478Z,14.40
2018-04-11T23:15:54.905Z,14.40
2018-04-11T23:18:22.345Z,14.40
2018-04-11T23:20:49.758Z,14.30
2018-04-11T23:23:17.979Z,14.30
2018-04-11T23:25:45.610Z,14.30
2018-04-11T23:28:13.122Z,14.20
2018-04-11T23:30:40.558Z,14.20
2018-04-11T23:33:08.107Z,14.20
2018-04-11T23:35:35.535Z,14.10
2018-04-11T23:38:02.945Z,14.10
2018-04-11T23:40:30.531Z,14.00
2018-04-11T23:42:58.186Z,13.90
2018-04-11T23:45:25.602Z,14.00
2018-04-11T23:47:53.019Z,14.00
2018-04-11T23:50:20.514Z,13.90
2018-04-11T23:52:47.935Z,13.90
2018-04-11T23:55:15.366Z,13.90
2018-04-11T23:57:42.782Z,13.90
